createdAt,value
2022-12-02T00:02:15.732Z,11.56
2022-12-02T00:05:29.049Z,11.51
2022-12-02T00:08:22.025Z,11.49
2022-12-02T00:11:26.382Z,11.45
2022-12-02T00:14:22.687Z,11.42
2022-12-02T00:17:11.389Z,11.39
2022-12-02T00:20:00.001Z,11.37
2022-12-02T00:22:50.414Z,11.39
2022-12-02T00:25:39.151Z,11.37
2022-12-02T00:28:27.805Z,11.40
2022-12-02T00:31:17.628Z,11.44
2022-12-02T00:34:06.446Z,11.48
2022-12-02T00:36:55.146Z,11.51
2022-12-02T00:39:45.405Z,11.51
2022-12-02T00:42:34.108Z,11.46
2022-12-02T00:45:40.422Z,11.45
2022-12-02T00:48:29.923Z,11.43
2022-12-02T00:51:18.616Z,11.44
2022-12-02T00:54:08.434Z,11.44
2022-12-02T00:56:58.466Z,11.46
2022-12-02T00:59:47.044Z,11.48
2022-12-02T01:02:35.761Z,11.50
2022-12-02T01:05:24.461Z,11.51
2022-12-02T01:08:13.372Z,11.53
2022-12-02T01:11:02.079Z,11.53
2022-12-02T01:13:52.169Z,11.51
2022-12-02T01:16:40.990Z,11.51
2022-12-02T01:19:29.749Z,11.50
2022-12-02T01:22:18.464Z,11.48
2022-12-02T01:25:08.047Z,11.51
2022-12-02T01:27:56.828Z,11.48
2022-12-02T01:30:47.801Z,11.46
2022-12-02T01:33:36.427Z,11.47
2022-12-02T01:36:25.058Z,11.47
2022-12-02T01:39:14.771Z,11.46
2022-12-02T01:42:03.754Z,11.44
2022-12-02T01:44:52.783Z,11.45
2022-12-02T01:47:43.483Z,11.50
2022-12-02T01:50:33.476Z,11.49
2022-12-02T01:53:22.983Z,11.50
2022-12-02T01:56:12.230Z,11.49
2022-12-02T01:59:01.330Z,11.47
2022-12-02T02:01:50.148Z,11.46
2022-12-02T02:04:40.634Z,11.45
2022-12-02T02:07:31.259Z,11.39
2022-12-02T02:10:21.089Z,11.37
2022-12-02T02:13:12.889Z,11.33
2022-12-02T02:16:01.918Z,11.28
2022-12-02T02:18:50.668Z,11.26
2022-12-02T02:21:46.500Z,11.29
2022-12-02T02:24:37.380Z,11.31
2022-12-02T02:27:26.764Z,11.30
2022-12-02T02:30:15.959Z,11.29
2022-12-02T02:33:08.663Z,11.30
2022-12-02T02:35:58.053Z,11.25
2022-12-02T02:38:46.772Z,11.21
2022-12-02T02:41:37.252Z,11.20
2022-12-02T02:44:27.350Z,11.24
2022-12-02T02:47:17.460Z,11.25
2022-12-02T02:50:08.687Z,11.27
2022-12-02T02:52:58.305Z,11.26
2022-12-02T02:55:47.191Z,11.29
2022-12-02T02:58:38.018Z,11.31
2022-12-02T03:01:31.159Z,11.34
2022-12-02T03:04:22.080Z,11.32
2022-12-02T03:07:11.408Z,11.30
2022-12-02T03:10:00.186Z,11.34
2022-12-02T03:12:53.496Z,11.36
2022-12-02T03:15:43.842Z,11.35
2022-12-02T03:18:33.130Z,11.37
2022-12-02T03:21:23.105Z,11.41
2022-12-02T03:24:11.963Z,11.42
2022-12-02T03:27:01.629Z,11.44
2022-12-02T03:29:50.366Z,11.44
2022-12-02T03:32:40.648Z,11.47
2022-12-02T03:35:30.360Z,11.45
2022-12-02T03:38:19.674Z,11.45
2022-12-02T03:41:09.351Z,11.43
2022-12-02T03:43:58.816Z,11.40
2022-12-02T03:46:48.503Z,11.37
2022-12-02T03:49:39.470Z,11.36
2022-12-02T03:52:30.529Z,11.34
2022-12-02T03:55:19.370Z,11.34
2022-12-02T03:58:10.336Z,11.30
2022-12-02T04:00:59.023Z,11.29
2022-12-02T04:03:47.870Z,11.32
2022-12-02T04:06:38.423Z,11.35
2022-12-02T04:09:27.214Z,11.36
2022-12-02T04:12:15.865Z,11.35
2022-12-02T04:15:04.992Z,11.32
2022-12-02T04:17:53.802Z,11.31
2022-12-02T04:20:42.461Z,11.26
2022-12-02T04:23:33.205Z,11.23
2022-12-02T04:26:22.315Z,11.23
2022-12-02T04:29:11.333Z,11.25
2022-12-02T04:31:59.892Z,11.27
2022-12-02T04:34:49.520Z,11.25
2022-12-02T04:37:38.451Z,11.22
2022-12-02T04:40:28.826Z,11.22
2022-12-02T04:43:17.507Z,11.20
2022-12-02T04:46:06.485Z,11.17
2022-12-02T04:48:55.199Z,11.09
2022-12-02T04:51:43.870Z,11.06
2022-12-02T04:54:32.539Z,11.06
2022-12-02T04:57:25.392Z,11.07
2022-12-02T05:00:18.835Z,11.12
2022-12-02T05:03:07.547Z,11.12
2022-12-02T05:05:56.380Z,11.07
2022-12-02T05:08:45.440Z,11.07
2022-12-02T05:11:36.468Z,11.07
2022-12-02T05:14:27.266Z,11.09
2022-12-02T05:17:15.915Z,11.11
2022-12-02T05:20:05.702Z,11.14
2022-12-02T05:22:54.706Z,11.13
2022-12-02T05:25:43.356Z,11.12
2022-12-02T05:28:32.064Z,11.12
2022-12-02T05:31:22.121Z,11.11
2022-12-02T05:34:10.778Z,11.12
2022-12-02T05:37:00.264Z,11.14
2022-12-02T05:39:48.892Z,11.16
2022-12-02T05:42:37.635Z,11.14
2022-12-02T05:45:26.247Z,11.14
2022-12-02T05:48:20.507Z,11.14
2022-12-02T05:51:14.191Z,11.11
2022-12-02T05:54:02.890Z,11.10
2022-12-02T05:56:51.641Z,11.08
2022-12-02T05:59:40.344Z,11.06
2022-12-02T06:02:40.828Z,11.07
2022-12-02T06:05:38.079Z,11.02
2022-12-02T06:08:36.436Z,10.98
2022-12-02T06:11:31.020Z,10.97
2022-12-02T06:14:23.482Z,10.97
2022-12-02T06:17:16.814Z,10.95
2022-12-02T06:20:07.875Z,10.92
2022-12-02T06:23:01.786Z,10.89
2022-12-02T06:25:53.577Z,10.86
2022-12-02T06:28:45.413Z,10.85
2022-12-02T06:31:38.726Z,10.88
2022-12-02T06:34:36.591Z,10.88
2022-12-02T06:37:30.562Z,10.88
2022-12-02T06:40:28.889Z,10.91
2022-12-02T06:43:30.398Z,10.91
2022-12-02T06:46:22.201Z,10.92
2022-12-02T06:49:18.287Z,10.94
2022-12-02T06:52:22.614Z,10.97
2022-12-02T06:55:30.100Z,10.95
2022-12-02T06:58:34.792Z,10.96
2022-12-02T07:01:32.349Z,10.98
2022-12-02T07:04:45.855Z,10.96
2022-12-02T07:07:36.707Z,10.93
2022-12-02T07:10:30.430Z,10.92
2022-12-02T07:13:21.025Z,10.96
2022-12-02T07:16:33.053Z,10.99
2022-12-02T07:19:25.478Z,10.96
2022-12-02T07:22:22.727Z,10.97
2022-12-02T07:25:36.274Z,11.00
2022-12-02T07:28:31.163Z,11.00
2022-12-02T07:31:23.157Z,11.00
2022-12-02T07:34:13.375Z,10.98
2022-12-02T07:37:02.060Z,11.01
2022-12-02T07:39:50.922Z,11.05
2022-12-02T07:42:41.047Z,11.06
2022-12-02T07:45:29.776Z,11.05
2022-12-02T07:48:18.442Z,11.04
2022-12-02T07:51:07.565Z,11.04
2022-12-02T07:53:56.624Z,11.03
2022-12-02T07:56:46.984Z,11.02
2022-12-02T07:59:37.086Z,11.04
2022-12-02T08:02:25.735Z,11.06
2022-12-02T08:05:14.502Z,11.05
2022-12-02T08:08:03.337Z,11.03
2022-12-02T08:10:52.092Z,10.98
2022-12-02T08:13:40.803Z,10.95
2022-12-02T08:16:30.938Z,10.96
2022-12-02T08:19:19.703Z,10.98
2022-12-02T08:22:08.462Z,10.99
2022-12-02T08:24:57.224Z,11.00
2022-12-02T08:27:45.966Z,11.02
2022-12-02T08:30:34.721Z,11.03
2022-12-02T08:33:24.798Z,11.03
2022-12-02T08:36:13.471Z,11.03
2022-12-02T08:39:05.606Z,11.04
2022-12-02T08:41:54.498Z,11.04
2022-12-02T08:44:43.138Z,11.03
2022-12-02T08:47:31.815Z,11.05
2022-12-02T08:50:22.077Z,11.07
2022-12-02T08:53:10.793Z,11.09
2022-12-02T08:55:59.492Z,11.11
2022-12-02T08:58:48.214Z,11.12
2022-12-02T09:01:36.978Z,11.10
2022-12-02T09:04:25.743Z,11.11
2022-12-02T09:07:15.793Z,11.10
2022-12-02T09:10:06.259Z,11.09
2022-12-02T09:12:55.336Z,11.08
2022-12-02T09:15:44.149Z,11.08
2022-12-02T09:18:32.982Z,11.06
2022-12-02T09:21:22.090Z,11.07
2022-12-02T09:24:12.184Z,11.05
2022-12-02T09:27:00.868Z,11.01
2022-12-02T09:29:49.520Z,10.97
2022-12-02T09:32:38.393Z,10.95
2022-12-02T09:35:27.039Z,10.93
2022-12-02T09:38:15.883Z,10.90
2022-12-02T09:41:06.451Z,10.89
2022-12-02T09:43:55.522Z,10.90
2022-12-02T09:46:44.356Z,10.93
2022-12-02T09:49:33.510Z,10.94
2022-12-02T09:52:26.268Z,10.92
2022-12-02T09:55:18.570Z,10.89
2022-12-02T09:58:16.433Z,10.90
2022-12-02T10:01:10.344Z,10.90
2022-12-02T10:03:59.004Z,10.88
2022-12-02T10:06:48.755Z,10.93
2022-12-02T10:09:37.876Z,10.94
2022-12-02T10:12:26.617Z,10.91
2022-12-02T10:15:20.720Z,10.90
2022-12-02T10:18:15.257Z,10.91
2022-12-02T10:21:03.997Z,10.93
2022-12-02T10:23:57.759Z,11.00
2022-12-02T10:26:50.114Z,10.96
2022-12-02T10:29:38.768Z,10.94
2022-12-02T10:32:29.020Z,10.92
2022-12-02T10:35:17.857Z,10.95
2022-12-02T10:38:11.749Z,10.96
2022-12-02T10:41:23.042Z,10.96
2022-12-02T10:44:18.118Z,10.95
2022-12-02T10:47:23.997Z,10.96
2022-12-02T10:50:25.076Z,10.93
2022-12-02T10:53:17.625Z,10.94
2022-12-02T10:56:07.395Z,10.89
2022-12-02T10:58:56.756Z,10.86
2022-12-02T11:01:46.407Z,10.84
2022-12-02T11:04:35.177Z,10.85
2022-12-02T11:07:26.059Z,10.89
2022-12-02T11:10:21.928Z,10.94
2022-12-02T11:13:49.694Z,10.95
2022-12-02T11:17:07.460Z,10.91
2022-12-02T11:20:35.574Z,10.91
2022-12-02T11:23:27.479Z,10.89
2022-12-02T11:26:16.328Z,10.91
2022-12-02T11:29:18.418Z,10.95
2022-12-02T11:32:20.108Z,10.98
2022-12-02T11:35:18.764Z,10.99
2022-12-02T11:38:22.174Z,11.00
2022-12-02T11:41:12.304Z,11.00
2022-12-02T11:44:26.494Z,11.03
2022-12-02T11:47:29.562Z,11.03
2022-12-02T11:50:27.106Z,11.03
2022-12-02T11:53:19.886Z,11.05
2022-12-02T11:56:19.327Z,11.06
2022-12-02T11:59:21.539Z,11.06
2022-12-02T12:02:12.996Z,11.06
2022-12-02T12:05:05.975Z,11.05
2022-12-02T12:07:59.680Z,11.02
2022-12-02T12:11:24.514Z,11.04
2022-12-02T12:14:23.582Z,11.06
2022-12-02T12:17:29.850Z,11.05
2022-12-02T12:20:45.701Z,11.04
2022-12-02T12:23:38.517Z,11.05
2022-12-02T12:26:35.622Z,11.07
2022-12-02T12:29:26.885Z,11.05
2022-12-02T12:32:15.573Z,11.02
2022-12-02T12:35:04.146Z,11.02
2022-12-02T12:37:52.771Z,11.02
2022-12-02T12:40:41.878Z,11.01
2022-12-02T12:43:31.889Z,10.99
2022-12-02T12:46:20.763Z,10.95
2022-12-02T12:49:09.719Z,10.90
2022-12-02T12:51:59.057Z,10.85
2022-12-02T12:54:51.167Z,10.82
2022-12-02T12:57:40.112Z,10.77
2022-12-02T13:00:30.309Z,10.78
2022-12-02T13:03:19.004Z,10.74
2022-12-02T13:06:08.807Z,10.74
2022-12-02T13:08:57.480Z,10.76
2022-12-02T13:11:46.177Z,10.79
2022-12-02T13:14:35.008Z,10.83
2022-12-02T13:17:25.441Z,10.86
2022-12-02T13:20:15.979Z,10.87
2022-12-02T13:23:05.340Z,10.88
2022-12-02T13:25:54.027Z,10.89
2022-12-02T13:28:42.697Z,10.90
2022-12-02T13:31:31.354Z,10.90
2022-12-02T13:34:21.468Z,10.89
2022-12-02T13:37:10.162Z,10.88
2022-12-02T13:39:58.957Z,10.86
2022-12-02T13:42:47.916Z,10.87
2022-12-02T13:45:36.661Z,10.89
2022-12-02T13:48:25.653Z,10.89
2022-12-02T13:51:15.784Z,10.88
2022-12-02T13:54:04.677Z,10.87
2022-12-02T13:56:53.526Z,10.84
2022-12-02T13:59:42.484Z,10.83
2022-12-02T14:02:31.191Z,10.81
2022-12-02T14:05:19.907Z,10.77
2022-12-02T14:08:10.006Z,10.77
2022-12-02T14:10:59.183Z,10.75
2022-12-02T14:13:47.906Z,10.77
2022-12-02T14:16:36.701Z,10.78
2022-12-02T14:19:25.401Z,10.80
2022-12-02T14:22:14.367Z,10.79
2022-12-02T14:25:04.691Z,10.79
2022-12-02T14:27:53.404Z,10.76
2022-12-02T14:30:42.187Z,10.72
2022-12-02T14:33:54.779Z,10.70
2022-12-02T14:36:40.005Z,10.73
2022-12-02T14:39:29.178Z,10.75
2022-12-02T14:42:19.248Z,10.77
2022-12-02T14:45:09.161Z,10.72
2022-12-02T14:47:57.937Z,10.68
2022-12-02T14:50:46.676Z,10.66
2022-12-02T14:53:35.359Z,10.66
2022-12-02T14:56:24.067Z,10.64
2022-12-02T14:59:15.247Z,10.65
2022-12-02T15:02:04.241Z,10.63
2022-12-02T15:04:53.133Z,10.62
2022-12-02T15:07:41.997Z,10.59
2022-12-02T15:10:31.178Z,10.58
2022-12-02T15:13:19.935Z,10.59
2022-12-02T15:16:11.020Z,10.59
2022-12-02T15:18:59.684Z,10.52
2022-12-02T15:21:48.746Z,10.47
2022-12-02T15:24:37.542Z,10.43
2022-12-02T15:27:26.458Z,10.43
2022-12-02T15:30:16.357Z,10.46
2022-12-02T15:33:06.569Z,10.51
2022-12-02T15:35:55.317Z,10.51
2022-12-02T15:38:44.400Z,10.50
2022-12-02T15:41:33.035Z,10.48
2022-12-02T15:44:21.818Z,10.51
2022-12-02T15:47:10.493Z,10.52
2022-12-02T15:50:00.601Z,10.51
2022-12-02T15:52:49.332Z,10.50
2022-12-02T15:55:38.287Z,10.46
2022-12-02T15:58:27.012Z,10.47
2022-12-02T16:01:15.700Z,10.48
2022-12-02T16:04:04.409Z,10.46
2022-12-02T16:06:54.554Z,10.44
2022-12-02T16:09:43.392Z,10.43
2022-12-02T16:12:32.182Z,10.41
2022-12-02T16:15:20.848Z,10.40
2022-12-02T16:18:09.501Z,10.35
2022-12-02T16:20:58.288Z,10.35
2022-12-02T16:23:48.372Z,10.36
2022-12-02T16:26:37.069Z,10.38
2022-12-02T16:29:26.111Z,10.36
2022-12-02T16:32:20.035Z,10.31
2022-12-02T16:35:10.048Z,10.26
2022-12-02T16:38:04.314Z,10.22
2022-12-02T16:40:55.340Z,10.21
2022-12-02T16:43:43.945Z,10.13
2022-12-02T16:46:33.320Z,10.09
2022-12-02T16:49:22.325Z,10.07
2022-12-02T16:52:10.920Z,10.08
2022-12-02T16:54:59.625Z,10.09
2022-12-02T16:57:50.023Z,10.12
2022-12-02T17:00:38.831Z,10.14
2022-12-02T17:03:28.794Z,10.12
2022-12-02T17:06:17.494Z,10.10
2022-12-02T17:09:06.299Z,10.14
2022-12-02T17:11:55.036Z,10.16
2022-12-02T17:14:45.440Z,10.15
2022-12-02T17:17:49.610Z,10.15
2022-12-02T17:20:38.498Z,10.15
2022-12-02T17:23:27.139Z,10.16
2022-12-02T17:26:15.799Z,10.21
2022-12-02T17:29:04.648Z,10.25
2022-12-02T17:31:54.698Z,10.25
2022-12-02T17:34:43.644Z,10.22
2022-12-02T17:37:32.332Z,10.19
2022-12-02T17:40:21.111Z,10.14
2022-12-02T17:43:09.739Z,10.12
2022-12-02T17:45:58.532Z,10.13
2022-12-02T17:48:49.206Z,10.16
2022-12-02T17:51:38.407Z,10.18
2022-12-02T17:54:27.050Z,10.19
2022-12-02T17:57:15.762Z,10.15
2022-12-02T18:00:05.974Z,10.13
2022-12-02T18:02:54.718Z,10.11
2022-12-02T18:05:45.079Z,10.11
2022-12-02T18:08:33.858Z,10.09
2022-12-02T18:11:22.573Z,10.11
2022-12-02T18:14:11.604Z,10.12
2022-12-02T18:17:00.477Z,10.09
2022-12-02T18:19:49.600Z,10.09
2022-12-02T18:22:40.056Z,10.06
2022-12-02T18:25:32.047Z,10.07
2022-12-02T18:28:20.749Z,10.04
2022-12-02T18:31:09.942Z,10.03
2022-12-02T18:33:58.676Z,10.02
2022-12-02T18:36:47.363Z,10.04
2022-12-02T18:39:37.483Z,10.03
2022-12-02T18:42:26.287Z,10.03
2022-12-02T18:45:15.402Z,10.03
2022-12-02T18:48:05.233Z,10.02
2022-12-02T18:50:53.965Z,9.99
2022-12-02T18:53:42.673Z,9.95
2022-12-02T18:56:32.684Z,9.92
2022-12-02T18:59:21.389Z,9.88
2022-12-02T19:02:11.267Z,9.92
2022-12-02T19:04:59.975Z,9.92
2022-12-02T19:07:48.720Z,9.94
2022-12-02T19:10:37.389Z,9.92
2022-12-02T19:13:27.555Z,9.93
2022-12-02T19:16:16.315Z,9.88
2022-12-02T19:19:05.507Z,9.87
2022-12-02T19:21:54.294Z,9.81
2022-12-02T19:24:42.972Z,9.80
2022-12-02T19:27:56.680Z,9.80
2022-12-02T19:30:41.971Z,9.81
2022-12-02T19:33:30.675Z,9.80
2022-12-02T19:36:19.435Z,9.78
2022-12-02T19:39:08.232Z,9.74
2022-12-02T19:41:56.931Z,9.74
2022-12-02T19:44:45.626Z,9.74
2022-12-02T19:47:35.768Z,9.70
2022-12-02T19:50:24.452Z,9.69
2022-12-02T19:53:13.188Z,9.69
2022-12-02T19:56:02.425Z,9.71
2022-12-02T19:58:51.150Z,9.75
2022-12-02T20:01:39.910Z,9.74
2022-12-02T20:04:45.443Z,9.77
2022-12-02T20:07:34.088Z,9.75
2022-12-02T20:10:23.723Z,9.75
2022-12-02T20:13:12.376Z,9.76
2022-12-02T20:16:01.113Z,9.78
2022-12-02T20:18:49.771Z,9.82
2022-12-02T20:21:39.777Z,9.84
2022-12-02T20:24:28.964Z,9.88
2022-12-02T20:27:17.597Z,9.87
2022-12-02T20:30:08.622Z,9.88
2022-12-02T20:32:57.341Z,9.89
2022-12-02T20:35:46.362Z,9.90
2022-12-02T20:38:36.471Z,9.89
2022-12-02T20:41:25.526Z,9.90
2022-12-02T20:44:14.603Z,9.89
2022-12-02T20:47:03.343Z,9.88
2022-12-02T20:49:52.109Z,9.89
2022-12-02T20:52:41.075Z,9.83
2022-12-02T20:55:30.998Z,9.77
2022-12-02T20:58:19.751Z,9.76
2022-12-02T21:01:12.499Z,9.74
2022-12-02T21:04:01.696Z,9.74
2022-12-02T21:06:50.366Z,9.72
2022-12-02T21:09:39.542Z,9.66
2022-12-02T21:12:29.660Z,9.65
2022-12-02T21:15:18.619Z,9.63
2022-12-02T21:18:07.923Z,9.64
2022-12-02T21:20:56.612Z,9.62
2022-12-02T21:23:45.325Z,9.62
2022-12-02T21:26:34.629Z,9.62
2022-12-02T21:29:24.653Z,9.63
2022-12-02T21:32:13.392Z,9.65
2022-12-02T21:35:07.867Z,9.63
2022-12-02T21:37:59.092Z,9.60
2022-12-02T21:40:47.834Z,9.64
2022-12-02T21:43:36.493Z,9.68
2022-12-02T21:46:26.491Z,9.72
2022-12-02T21:49:15.289Z,9.77
2022-12-02T21:52:04.091Z,9.78
2022-12-02T21:54:53.066Z,9.78
2022-12-02T21:57:42.039Z,9.76
2022-12-02T22:00:30.763Z,9.74
2022-12-02T22:03:21.238Z,9.70
2022-12-02T22:06:09.886Z,9.69
2022-12-02T22:08:59.588Z,9.70
2022-12-02T22:11:48.244Z,9.70
2022-12-02T22:14:37.162Z,9.70
2022-12-02T22:17:25.869Z,9.70
2022-12-02T22:20:17.945Z,9.71
2022-12-02T22:23:06.670Z,9.74
2022-12-02T22:25:55.323Z,9.73
2022-12-02T22:28:43.924Z,9.73
2022-12-02T22:31:32.673Z,9.75
2022-12-02T22:34:21.489Z,9.79
2022-12-02T22:37:11.747Z,9.78
2022-12-02T22:40:00.390Z,9.78
2022-12-02T22:42:49.543Z,9.71
2022-12-02T22:45:38.329Z,9.68
2022-12-02T22:48:26.999Z,9.69
2022-12-02T22:51:15.678Z,9.68
2022-12-02T22:54:05.944Z,9.70
2022-12-02T22:56:54.878Z,9.71
2022-12-02T22:59:43.594Z,9.72
2022-12-02T23:02:32.314Z,9.74
2022-12-02T23:05:21.047Z,9.74
2022-12-02T23:08:09.842Z,9.74
2022-12-02T23:10:59.955Z,9.76
2022-12-02T23:13:48.668Z,9.78
2022-12-02T23:16:37.442Z,9.78
2022-12-02T23:19:26.183Z,9.80
2022-12-02T23:22:14.829Z,9.79
2022-12-02T23:25:03.975Z,9.79
2022-12-02T23:27:54.003Z,9.79
2022-12-02T23:30:42.726Z,9.77
2022-12-02T23:33:31.396Z,9.77
2022-12-02T23:36:20.122Z,9.76
2022-12-02T23:39:08.755Z,9.77
2022-12-02T23:41:57.366Z,9.77
2022-12-02T23:44:47.361Z,9.80
2022-12-02T23:47:36.549Z,9.81
2022-12-02T23:50:25.251Z,9.83
2022-12-02T23:53:13.919Z,9.83
2022-12-02T23:56:02.569Z,9.84
2022-12-02T23:58:51.185Z,9.87
